sensor_id;sensor_type;location;lat;lon;timestamp;pressure;altitude;pressure_sealevel;temperature;humidity
60852;BME280;48553;50.766;2.900;2022-08-01T00:01:12;101096.38;;;21.74;62.77
60852;BME280;48553;50.766;2.900;2022-08-01T00:04:13;101104.75;;;21.74;62.89
60852;BME280;48553;50.766;2.900;2022-08-01T00:07:13;101100.00;;;21.71;62.96
60852;BME280;48553;50.766;2.900;2022-08-01T00:10:16;101095.59;;;21.70;62.57
60852;BME280;48553;50.766;2.900;2022-08-01T00:13:16;101097.59;;;21.69;62.70
60852;BME280;48553;50.766;2.900;2022-08-01T00:16:17;101101.97;;;21.71;62.96
60852;BME280;48553;50.766;2.900;2022-08-01T00:19:17;101100.00;;;21.71;62.78
60852;BME280;48553;50.766;2.900;2022-08-01T00:22:17;101089.63;;;21.68;63.09
60852;BME280;48553;50.766;2.900;2022-08-01T00:25:18;101092.81;;;21.70;63.21
60852;BME280;48553;50.766;2.900;2022-08-01T00:28:18;101088.84;;;21.67;63.17
60852;BME280;48553;50.766;2.900;2022-08-01T00:31:19;101087.66;;;21.65;63.21
60852;BME280;48553;50.766;2.900;2022-08-01T00:34:19;101092.03;;;21.66;63.26
60852;BME280;48553;50.766;2.900;2022-08-01T00:37:20;101091.63;;;21.64;63.20
60852;BME280;48553;50.766;2.900;2022-08-01T00:40:20;101087.66;;;21.61;63.40
60852;BME280;48553;50.766;2.900;2022-08-01T00:43:21;101091.22;;;21.62;63.93
60852;BME280;48553;50.766;2.900;2022-08-01T00:46:21;101093.66;;;21.60;63.84
60852;BME280;48553;50.766;2.900;2022-08-01T00:49:22;101104.41;;;21.61;63.71
60852;BME280;48553;50.766;2.900;2022-08-01T00:52:22;101088.88;;;21.60;63.99
60852;BME280;48553;50.766;2.900;2022-08-01T00:55:23;101094.44;;;21.60;64.11
60852;BME280;48553;50.766;2.900;2022-08-01T00:58:24;101086.88;;;21.57;64.17
60852;BME280;48553;50.766;2.900;2022-08-01T01:01:24;101087.25;;;21.59;64.19
60852;BME280;48553;50.766;2.900;2022-08-01T01:04:25;101082.50;;;21.56;64.04
60852;BME280;48553;50.766;2.900;2022-08-01T01:10:45;101083.72;;;21.52;64.35
60852;BME280;48553;50.766;2.900;2022-08-01T01:13:52;101075.34;;;21.48;64.31
60852;BME280;48553;50.766;2.900;2022-08-01T01:16:54;101076.91;;;21.53;63.77
60852;BME280;48553;50.766;2.900;2022-08-01T01:19:57;101072.16;;;21.50;64.51
60852;BME280;48553;50.766;2.900;2022-08-01T01:26:43;101069.38;;;21.50;64.63
60852;BME280;48553;50.766;2.900;2022-08-01T01:29:48;101071.38;;;21.49;64.35
60852;BME280;48553;50.766;2.900;2022-08-01T01:32:50;101074.94;;;21.50;64.45
60852;BME280;48553;50.766;2.900;2022-08-01T01:35:56;101064.56;;;21.50;64.66
60852;BME280;48553;50.766;2.900;2022-08-01T01:38:58;101072.16;;;21.46;64.68
60852;BME280;48553;50.766;2.900;2022-08-01T01:42:04;101065.78;;;21.45;64.46
60852;BME280;48553;50.766;2.900;2022-08-01T01:45:05;101064.22;;;21.44;64.78
60852;BME280;48553;50.766;2.900;2022-08-01T01:48:09;101062.59;;;21.43;64.70
60852;BME280;48553;50.766;2.900;2022-08-01T01:51:11;101067.00;;;21.44;64.70
60852;BME280;48553;50.766;2.900;2022-08-01T01:54:12;101064.59;;;21.43;64.70
60852;BME280;48553;50.766;2.900;2022-08-01T01:57:13;101072.56;;;21.41;64.88
60852;BME280;48553;50.766;2.900;2022-08-01T02:00:15;101072.56;;;21.41;64.68
60852;BME280;48553;50.766;2.900;2022-08-01T02:03:18;101068.19;;;21.40;64.93
60852;BME280;48553;50.766;2.900;2022-08-01T02:06:19;101066.19;;;21.37;65.15
60852;BME280;48553;50.766;2.900;2022-08-01T02:09:21;101065.00;;;21.38;65.23
60852;BME280;48553;50.766;2.900;2022-08-01T02:12:23;101079.34;;;21.36;65.30
60852;BME280;48553;50.766;2.900;2022-08-01T02:15:25;101073.75;;;21.36;64.85
60852;BME280;48553;50.766;2.900;2022-08-01T02:18:26;101079.34;;;21.36;64.92
60852;BME280;48553;50.766;2.900;2022-08-01T02:21:32;101074.19;;;21.35;65.19
60852;BME280;48553;50.766;2.900;2022-08-01T02:24:43;101080.94;;;21.34;64.89
60852;BME280;48553;50.766;2.900;2022-08-01T02:28:05;101076.56;;;21.33;65.15
60852;BME280;48553;50.766;2.900;2022-08-01T02:31:11;101073.78;;;21.33;65.14
60852;BME280;48553;50.766;2.900;2022-08-01T02:34:17;101069.00;;;21.30;65.63
60852;BME280;48553;50.766;2.900;2022-08-01T02:37:18;101078.53;;;21.32;65.10
60852;BME280;48553;50.766;2.900;2022-08-01T02:40:21;101084.94;;;21.29;65.28
60852;BME280;48553;50.766;2.900;2022-08-01T02:43:24;101085.75;;;21.26;65.44
60852;BME280;48553;50.766;2.900;2022-08-01T02:46:33;101076.19;;;21.23;65.32
60852;BME280;48553;50.766;2.900;2022-08-01T02:49:39;101078.16;;;21.23;65.17
60852;BME280;48553;50.766;2.900;2022-08-01T02:52:43;101076.97;;;21.24;65.14
60852;BME280;48553;50.766;2.900;2022-08-01T02:55:46;101072.97;;;21.25;65.20
60852;BME280;48553;50.766;2.900;2022-08-01T02:58:48;101077.78;;;21.24;65.01
60852;BME280;48553;50.766;2.900;2022-08-01T03:01:49;101070.63;;;21.23;65.13
60852;BME280;48553;50.766;2.900;2022-08-01T03:04:52;101073.78;;;21.22;65.39
60852;BME280;48553;50.766;2.900;2022-08-01T03:07:55;101071.78;;;21.22;65.00
60852;BME280;48553;50.766;2.900;2022-08-01T03:10:59;101078.19;;;21.19;65.08
60852;BME280;48553;50.766;2.900;2022-08-01T03:14:02;101073.41;;;21.20;64.88
60852;BME280;48553;50.766;2.900;2022-08-01T03:17:05;101074.19;;;21.20;65.14
60852;BME280;48553;50.766;2.900;2022-08-01T03:20:08;101070.59;;;21.16;65.13
60852;BME280;48553;50.766;2.900;2022-08-01T03:23:12;101075.78;;;21.14;65.19
60852;BME280;48553;50.766;2.900;2022-08-01T03:26:13;101078.19;;;21.16;64.78
60852;BME280;48553;50.766;2.900;2022-08-01T03:29:17;101072.19;;;21.14;65.11
60852;BME280;48553;50.766;2.900;2022-08-01T03:32:20;101075.00;;;21.14;65.20
60852;BME280;48553;50.766;2.900;2022-08-01T03:35:21;101074.59;;;21.12;65.33
60852;BME280;48553;50.766;2.900;2022-08-01T03:38:25;101076.59;;;21.11;65.24
60852;BME280;48553;50.766;2.900;2022-08-01T03:41:30;101081.78;;;21.09;65.34
60852;BME280;48553;50.766;2.900;2022-08-01T03:44:35;101090.56;;;21.08;65.57
60852;BME280;48553;50.766;2.900;2022-08-01T03:47:42;101089.72;;;21.07;65.45
60852;BME280;48553;50.766;2.900;2022-08-01T03:50:50;101086.56;;;21.09;65.28
60852;BME280;48553;50.766;2.900;2022-08-01T03:53:52;101081.38;;;21.07;65.47
60852;BME280;48553;50.766;2.900;2022-08-01T03:56:54;101092.13;;;21.05;65.44
60852;BME280;48553;50.766;2.900;2022-08-01T03:59:58;101091.31;;;21.04;65.27
60852;BME280;48553;50.766;2.900;2022-08-01T04:02:59;101084.19;;;21.03;65.42
60852;BME280;48553;50.766;2.900;2022-08-01T04:06:04;101085.75;;;21.04;65.04
60852;BME280;48553;50.766;2.900;2022-08-01T04:09:04;101080.19;;;21.04;65.41
60852;BME280;48553;50.766;2.900;2022-08-01T04:12:05;101074.59;;;21.04;65.34
60852;BME280;48553;50.766;2.900;2022-08-01T04:15:06;101084.97;;;21.04;64.92
60852;BME280;48553;50.766;2.900;2022-08-01T04:18:06;101092.53;;;21.03;65.20
60852;BME280;48553;50.766;2.900;2022-08-01T04:21:07;101084.56;;;21.02;65.23
60852;BME280;48553;50.766;2.900;2022-08-01T04:24:14;101078.59;;;21.00;65.01
60852;BME280;48553;50.766;2.900;2022-08-01T04:27:21;101081.38;;;21.00;65.47
60852;BME280;48553;50.766;2.900;2022-08-01T04:30:34;101085.38;;;20.99;65.20
60852;BME280;48553;50.766;2.900;2022-08-01T04:33:38;101086.56;;;20.98;65.47
60852;BME280;48553;50.766;2.900;2022-08-01T04:36:40;101088.56;;;20.97;65.04
60852;BME280;48553;50.766;2.900;2022-08-01T04:39:45;101086.97;;;20.96;65.21
60852;BME280;48553;50.766;2.900;2022-08-01T04:42:48;101098.91;;;20.97;65.17
60852;BME280;48553;50.766;2.900;2022-08-01T04:45:50;101098.50;;;20.95;65.27
60852;BME280;48553;50.766;2.900;2022-08-01T04:48:51;101104.09;;;20.95;65.28
60852;BME280;48553;50.766;2.900;2022-08-01T04:51:53;101109.66;;;20.95;65.03
60852;BME280;48553;50.766;2.900;2022-08-01T04:55:11;101107.66;;;20.95;65.22
60852;BME280;48553;50.766;2.900;2022-08-01T04:58:13;101106.06;;;20.94;65.11
60852;BME280;48553;50.766;2.900;2022-08-01T05:01:14;101108.47;;;20.92;65.54
60852;BME280;48553;50.766;2.900;2022-08-01T05:04:14;101112.44;;;20.91;65.50
60852;BME280;48553;50.766;2.900;2022-08-01T05:07:15;101116.81;;;20.92;65.29
60852;BME280;48553;50.766;2.900;2022-08-01T05:10:16;101113.25;;;20.92;65.30
60852;BME280;48553;50.766;2.900;2022-08-01T05:13:16;101104.50;;;20.90;65.40
60852;BME280;48553;50.766;2.900;2022-08-01T05:16:17;101096.13;;;20.90;65.42
60852;BME280;48553;50.766;2.900;2022-08-01T05:19:17;101104.88;;;20.92;65.32
60852;BME280;48553;50.766;2.900;2022-08-01T05:22:18;101105.69;;;20.92;65.55
60852;BME280;48553;50.766;2.900;2022-08-01T05:25:18;101102.09;;;20.92;65.31
60852;BME280;48553;50.766;2.900;2022-08-01T05:28:19;101114.44;;;20.91;65.75
60852;BME280;48553;50.766;2.900;2022-08-01T05:31:19;101119.22;;;20.90;65.44
60852;BME280;48553;50.766;2.900;2022-08-01T05:34:20;101127.97;;;20.89;65.66
60852;BME280;48553;50.766;2.900;2022-08-01T05:37:20;101131.16;;;20.91;65.68
60852;BME280;48553;50.766;2.900;2022-08-01T05:40:21;101127.19;;;20.92;65.81
60852;BME280;48553;50.766;2.900;2022-08-01T05:43:21;101133.13;;;20.86;66.02
60852;BME280;48553;50.766;2.900;2022-08-01T05:46:22;101135.94;;;20.90;65.90
60852;BME280;48553;50.766;2.900;2022-08-01T05:49:22;101137.94;;;20.90;65.96
60852;BME280;48553;50.766;2.900;2022-08-01T05:52:23;101132.75;;;20.88;66.16
60852;BME280;48553;50.766;2.900;2022-08-01T05:55:24;101138.69;;;20.86;66.29
60852;BME280;48553;50.766;2.900;2022-08-01T05:58:24;101138.31;;;20.88;66.09
60852;BME280;48553;50.766;2.900;2022-08-01T06:01:25;101148.25;;;20.89;65.77
60852;BME280;48553;50.766;2.900;2022-08-01T06:04:25;101146.28;;;20.90;66.23
60852;BME280;48553;50.766;2.900;2022-08-01T06:07:26;101145.88;;;20.91;66.27
60852;BME280;48553;50.766;2.900;2022-08-01T06:10:26;101147.88;;;20.94;65.74
60852;BME280;48553;50.766;2.900;2022-08-01T06:13:27;101155.81;;;20.96;65.77
60852;BME280;48553;50.766;2.900;2022-08-01T06:16:27;101158.63;;;20.99;65.31
60852;BME280;48553;50.766;2.900;2022-08-01T06:19:28;101159.03;;;21.01;65.41
60852;BME280;48553;50.766;2.900;2022-08-01T06:22:28;101151.06;;;21.03;65.17
60852;BME280;48553;50.766;2.900;2022-08-01T06:25:29;101156.63;;;21.03;65.45
60852;BME280;48553;50.766;2.900;2022-08-01T06:28:30;101148.28;;;21.03;65.61
60852;BME280;48553;50.766;2.900;2022-08-01T06:31:30;101145.06;;;21.05;65.71
60852;BME280;48553;50.766;2.900;2022-08-01T06:34:31;101139.50;;;21.09;65.20
60852;BME280;48553;50.766;2.900;2022-08-01T06:37:32;101151.44;;;21.09;65.14
60852;BME280;48553;50.766;2.900;2022-08-01T06:40:33;101153.44;;;21.09;65.48
60852;BME280;48553;50.766;2.900;2022-08-01T06:43:33;101150.25;;;21.06;65.75
60852;BME280;48553;50.766;2.900;2022-08-01T06:46:34;101156.22;;;21.09;65.95
60852;BME280;48553;50.766;2.900;2022-08-01T06:49:34;101155.03;;;21.10;65.80
60852;BME280;48553;50.766;2.900;2022-08-01T06:52:36;101153.81;;;21.14;65.59
60852;BME280;48553;50.766;2.900;2022-08-01T06:55:36;101152.66;;;21.15;65.74
60852;BME280;48553;50.766;2.900;2022-08-01T06:58:37;101154.25;;;21.23;65.47
60852;BME280;48553;50.766;2.900;2022-08-01T07:01:37;101161.81;;;21.26;64.61
60852;BME280;48553;50.766;2.900;2022-08-01T07:04:38;101166.97;;;21.32;64.22
60852;BME280;48553;50.766;2.900;2022-08-01T07:07:38;101159.41;;;21.36;64.81
60852;BME280;48553;50.766;2.900;2022-08-01T07:10:39;101161.03;;;21.40;64.63
60852;BME280;48553;50.766;2.900;2022-08-01T07:13:39;101158.25;;;21.44;64.32
60852;BME280;48553;50.766;2.900;2022-08-01T07:16:40;101158.63;;;21.46;64.78
60852;BME280;48553;50.766;2.900;2022-08-01T07:19:40;101159.03;;;21.44;64.54
60852;BME280;48553;50.766;2.900;2022-08-01T07:22:40;101159.03;;;21.44;65.08
60852;BME280;48553;50.766;2.900;2022-08-01T07:25:41;101156.22;;;21.48;64.38
60852;BME280;48553;50.766;2.900;2022-08-01T07:28:42;101163.81;;;21.51;64.47
60852;BME280;48553;50.766;2.900;2022-08-01T07:31:42;101157.03;;;21.56;64.21
60852;BME280;48553;50.766;2.900;2022-08-01T07:34:42;101162.19;;;21.61;64.30
60852;BME280;48553;50.766;2.900;2022-08-01T07:37:43;101161.38;;;21.64;64.02
60852;BME280;48553;50.766;2.900;2022-08-01T07:40:44;101163.38;;;21.67;64.29
60852;BME280;48553;50.766;2.900;2022-08-01T07:43:44;101174.91;;;21.76;64.47
60852;BME280;48553;50.766;2.900;2022-08-01T07:46:44;101177.28;;;21.81;65.08
60852;BME280;48553;50.766;2.900;2022-08-01T07:49:45;101184.44;;;21.86;64.48
60852;BME280;48553;50.766;2.900;2022-08-01T07:52:45;101184.84;;;21.88;64.88
60852;BME280;48553;50.766;2.900;2022-08-01T07:55:46;101174.47;;;21.92;64.49
60852;BME280;48553;50.766;2.900;2022-08-01T07:58:46;101175.66;;;21.91;64.19
60852;BME280;48553;50.766;2.900;2022-08-01T08:01:49;101179.25;;;21.92;63.49
60852;BME280;48553;50.766;2.900;2022-08-01T08:04:50;101183.63;;;21.96;64.03
60852;BME280;48553;50.766;2.900;2022-08-01T08:07:51;101180.38;;;22.05;63.88
60852;BME280;48553;50.766;2.900;2022-08-01T08:10:51;101169.19;;;22.16;64.18
60852;BME280;48553;50.766;2.900;2022-08-01T08:13:52;101180.69;;;22.36;64.60
60852;BME280;48553;50.766;2.900;2022-08-01T08:16:52;101170.63;;;22.52;64.40
60852;BME280;48553;50.766;2.900;2022-08-01T08:19:53;101166.13;;;22.69;63.55
60852;BME280;48553;50.766;2.900;2022-08-01T08:22:54;101172.91;;;22.76;63.59
60852;BME280;48553;50.766;2.900;2022-08-01T08:25:55;101173.22;;;22.85;63.42
60852;BME280;48553;50.766;2.900;2022-08-01T08:28:55;101178.81;;;22.85;63.48
60852;BME280;48553;50.766;2.900;2022-08-01T08:31:57;101182.00;;;22.87;62.88
60852;BME280;48553;50.766;2.900;2022-08-01T08:34:57;101179.94;;;22.94;62.78
60852;BME280;48553;50.766;2.900;2022-08-01T08:37:58;101182.31;;;23.00;62.35
60852;BME280;48553;50.766;2.900;2022-08-01T08:40:59;101183.50;;;23.02;62.63
60852;BME280;48553;50.766;2.900;2022-08-01T08:44:04;101183.44;;;23.09;62.44
60852;BME280;48553;50.766;2.900;2022-08-01T08:47:06;101187.03;;;23.10;62.30
60852;BME280;48553;50.766;2.900;2022-08-01T08:50:08;101185.03;;;23.10;62.13
60852;BME280;48553;50.766;2.900;2022-08-01T08:53:09;101199.81;;;23.11;61.83
60852;BME280;48553;50.766;2.900;2022-08-01T08:56:12;101202.22;;;23.12;61.63
60852;BME280;48553;50.766;2.900;2022-08-01T08:59:13;101211.38;;;23.17;61.33
60852;BME280;48553;50.766;2.900;2022-08-01T09:02:14;101212.16;;;23.17;61.10
60852;BME280;48553;50.766;2.900;2022-08-01T09:05:14;101207.78;;;23.12;61.14
60852;BME280;48553;50.766;2.900;2022-08-01T09:08:15;101211.78;;;23.15;60.78
60852;BME280;48553;50.766;2.900;2022-08-01T09:11:16;101213.38;;;23.12;60.83
60852;BME280;48553;50.766;2.900;2022-08-01T09:14:18;101209.38;;;23.13;60.37
60852;BME280;48553;50.766;2.900;2022-08-01T09:17:23;101207.38;;;23.14;60.78
60852;BME280;48553;50.766;2.900;2022-08-01T09:20:24;101224.91;;;23.18;60.98
60852;BME280;48553;50.766;2.900;2022-08-01T09:23:32;101218.94;;;23.20;60.82
60852;BME280;48553;50.766;2.900;2022-08-01T09:26:35;101223.69;;;23.23;60.95
60852;BME280;48553;50.766;2.900;2022-08-01T09:29:35;101215.66;;;23.28;60.42
60852;BME280;48553;50.766;2.900;2022-08-01T09:32:37;101217.25;;;23.29;60.34
60852;BME280;48553;50.766;2.900;2022-08-01T09:35:56;101214.44;;;23.33;60.30
60852;BME280;48553;50.766;2.900;2022-08-01T09:38:56;101221.13;;;23.43;60.00
60852;BME280;48553;50.766;2.900;2022-08-01T09:42:25;101219.09;;;23.47;59.97
60852;BME280;48553;50.766;2.900;2022-08-01T09:45:34;101230.22;;;23.54;59.88
60852;BME280;48553;50.766;2.900;2022-08-01T09:48:35;101230.22;;;23.54;59.96
60852;BME280;48553;50.766;2.900;2022-08-01T09:51:38;101220.59;;;23.59;59.77
60852;BME280;48553;50.766;2.900;2022-08-01T09:54:39;101221.75;;;23.61;59.58
60852;BME280;48553;50.766;2.900;2022-08-01T09:57:40;101222.13;;;23.63;59.12
60852;BME280;48553;50.766;2.900;2022-08-01T10:00:58;101217.31;;;23.67;58.98
60852;BME280;48553;50.766;2.900;2022-08-01T10:04:09;101221.66;;;23.75;59.17
60852;BME280;48553;50.766;2.900;2022-08-01T10:07:10;101217.63;;;23.73;59.09
60852;BME280;48553;50.766;2.900;2022-08-01T10:10:12;101221.66;;;23.75;59.10
60852;BME280;48553;50.766;2.900;2022-08-01T10:13:13;101226.41;;;23.79;59.13
60852;BME280;48553;50.766;2.900;2022-08-01T10:16:14;101227.91;;;23.90;58.78
60852;BME280;48553;50.766;2.900;2022-08-01T10:19:15;101218.31;;;23.91;58.68
60852;BME280;48553;50.766;2.900;2022-08-01T10:22:18;101224.59;;;23.99;58.03
60852;BME280;48553;50.766;2.900;2022-08-01T10:25:19;101222.97;;;24.02;58.42
60852;BME280;48553;50.766;2.900;2022-08-01T10:28:21;101221.59;;;24.17;58.06
60852;BME280;48553;50.766;2.900;2022-08-01T10:31:23;101217.31;;;24.39;57.89
60852;BME280;48553;50.766;2.900;2022-08-01T10:34:24;101222.16;;;24.70;57.17
60852;BME280;48553;50.766;2.900;2022-08-01T10:37:25;101217.81;;;24.65;57.49
60852;BME280;48553;50.766;2.900;2022-08-01T10:40:26;101210.66;;;24.88;56.72
60852;BME280;48553;50.766;2.900;2022-08-01T10:43:27;101212.50;;;24.98;56.64
60852;BME280;48553;50.766;2.900;2022-08-01T10:46:30;101211.53;;;24.85;57.10
60852;BME280;48553;50.766;2.900;2022-08-01T10:49:34;101214.38;;;24.81;56.88
60852;BME280;48553;50.766;2.900;2022-08-01T10:52:36;101211.53;;;24.85;56.28
60852;BME280;48553;50.766;2.900;2022-08-01T10:59:02;101212.25;;;24.89;56.17
60852;BME280;48553;50.766;2.900;2022-08-01T11:02:04;101213.09;;;24.86;56.37
60852;BME280;48553;50.766;2.900;2022-08-01T11:05:10;101211.47;;;24.88;56.49
60852;BME280;48553;50.766;2.900;2022-08-01T11:08:22;101213.13;;;25.09;55.59
60852;BME280;48553;50.766;2.900;2022-08-01T11:11:23;101205.06;;;25.38;54.98
60852;BME280;48553;50.766;2.900;2022-08-01T11:14:23;101216.06;;;25.29;55.44
60852;BME280;48553;50.766;2.900;2022-08-01T11:17:36;101208.38;;;25.33;55.40
60852;BME280;48553;50.766;2.900;2022-08-01T11:20:37;101211.03;;;25.40;55.07
60852;BME280;48553;50.766;2.900;2022-08-01T11:23:48;101211.97;;;25.34;55.13
60852;BME280;48553;50.766;2.900;2022-08-01T11:27:17;101221.44;;;25.44;55.08
60852;BME280;48553;50.766;2.900;2022-08-01T11:30:22;101209.81;;;25.65;54.48
60852;BME280;48553;50.766;2.900;2022-08-01T11:36:41;101209.25;;;26.17;53.49
60852;BME280;48553;50.766;2.900;2022-08-01T11:39:42;101196.84;;;26.35;53.58
60852;BME280;48553;50.766;2.900;2022-08-01T11:42:42;101206.88;;;26.52;53.48
60852;BME280;48553;50.766;2.900;2022-08-01T11:45:54;101201.59;;;26.74;53.05
60852;BME280;48553;50.766;2.900;2022-08-01T11:52:30;101191.91;;;27.28;52.09
60852;BME280;48553;50.766;2.900;2022-08-01T11:55:33;101195.22;;;27.39;51.83
60852;BME280;48553;50.766;2.900;2022-08-01T11:58:34;101196.91;;;27.37;51.91
60852;BME280;48553;50.766;2.900;2022-08-01T12:01:35;101198.47;;;27.38;51.17
60852;BME280;48553;50.766;2.900;2022-08-01T12:04:48;101199.06;;;27.45;50.78
60852;BME280;48553;50.766;2.900;2022-08-01T12:07:51;101206.19;;;27.50;50.95
60852;BME280;48553;50.766;2.900;2022-08-01T12:10:52;101195.97;;;27.56;50.64
60852;BME280;48553;50.766;2.900;2022-08-01T12:13:53;101191.59;;;27.55;50.98
60852;BME280;48553;50.766;2.900;2022-08-01T12:16:55;101201.38;;;27.51;50.28
60852;BME280;48553;50.766;2.900;2022-08-01T12:19:55;101198.91;;;27.53;50.10
60852;BME280;48553;50.766;2.900;2022-08-01T12:23:02;101196.69;;;27.60;50.29
60852;BME280;48553;50.766;2.900;2022-08-01T12:26:03;101201.88;;;27.62;50.02
60852;BME280;48553;50.766;2.900;2022-08-01T12:29:04;101205.13;;;27.60;50.10
60852;BME280;48553;50.766;2.900;2022-08-01T12:32:20;101206.41;;;27.72;49.40
60852;BME280;48553;50.766;2.900;2022-08-01T12:35:24;101206.41;;;27.72;49.53
60852;BME280;48553;50.766;2.900;2022-08-01T12:38:24;101213.75;;;27.69;49.06
60852;BME280;48553;50.766;2.900;2022-08-01T12:41:27;101200.78;;;27.72;49.63
60852;BME280;48553;50.766;2.900;2022-08-01T12:44:28;101207.66;;;27.71;49.23
60852;BME280;48553;50.766;2.900;2022-08-01T12:47:29;101203.06;;;27.77;48.99
60852;BME280;48553;50.766;2.900;2022-08-01T12:50:31;101191.13;;;27.73;49.26
60852;BME280;48553;50.766;2.900;2022-08-01T12:53:35;101195.00;;;27.63;48.80
60852;BME280;48553;50.766;2.900;2022-08-01T12:56:35;101187.25;;;27.67;48.77
60852;BME280;48553;50.766;2.900;2022-08-01T12:59:36;101193.25;;;27.69;48.40
60852;BME280;48553;50.766;2.900;2022-08-01T13:02:37;101188.59;;;27.62;48.60
60852;BME280;48553;50.766;2.900;2022-08-01T13:05:47;101190.16;;;27.63;49.18
60852;BME280;48553;50.766;2.900;2022-08-01T13:08:48;101192.72;;;27.58;49.59
60852;BME280;48553;50.766;2.900;2022-08-01T13:11:49;101185.38;;;27.77;48.54
60852;BME280;48553;50.766;2.900;2022-08-01T13:14:49;101185.00;;;27.91;47.74
60852;BME280;48553;50.766;2.900;2022-08-01T13:17:51;101185.28;;;28.09;48.82
60852;BME280;48553;50.766;2.900;2022-08-01T13:21:13;101166.03;;;28.21;48.48
60852;BME280;48553;50.766;2.900;2022-08-01T13:24:15;101168.94;;;28.17;48.57
60852;BME280;48553;50.766;2.900;2022-08-01T13:27:21;101181.22;;;28.10;47.88
60852;BME280;48553;50.766;2.900;2022-08-01T13:30:24;101167.00;;;28.01;47.13
60852;BME280;48553;50.766;2.900;2022-08-01T13:33:26;101161.75;;;28.16;47.13
60852;BME280;48553;50.766;2.900;2022-08-01T13:36:27;101165.03;;;28.27;47.49
60852;BME280;48553;50.766;2.900;2022-08-01T13:39:29;101147.09;;;28.34;47.12
60852;BME280;48553;50.766;2.900;2022-08-01T13:42:43;101156.56;;;28.40;47.48
60852;BME280;48553;50.766;2.900;2022-08-01T13:45:43;101151.16;;;28.33;47.58
60852;BME280;48553;50.766;2.900;2022-08-01T13:48:44;101160.41;;;28.33;47.52
60852;BME280;48553;50.766;2.900;2022-08-01T13:51:44;101151.47;;;28.22;47.56
60852;BME280;48553;50.766;2.900;2022-08-01T13:54:46;101146.66;;;28.36;46.77
60852;BME280;48553;50.766;2.900;2022-08-01T13:57:46;101139.91;;;28.46;46.51
60852;BME280;48553;50.766;2.900;2022-08-01T14:00:47;101142.72;;;28.59;46.22
60852;BME280;48553;50.766;2.900;2022-08-01T14:03:47;101145.00;;;28.51;47.23
60852;BME280;48553;50.766;2.900;2022-08-01T14:06:48;101145.78;;;28.51;46.98
60852;BME280;48553;50.766;2.900;2022-08-01T14:09:48;101149.03;;;28.50;46.72
60852;BME280;48553;50.766;2.900;2022-08-01T14:12:49;101146.56;;;28.52;46.97
60852;BME280;48553;50.766;2.900;2022-08-01T14:15:50;101144.44;;;28.56;46.47
60852;BME280;48553;50.766;2.900;2022-08-01T14:18:51;101140.28;;;28.48;46.13
60852;BME280;48553;50.766;2.900;2022-08-01T14:21:51;101139.22;;;28.55;45.17
60852;BME280;48553;50.766;2.900;2022-08-01T14:24:52;101140.69;;;28.46;45.34
60852;BME280;48553;50.766;2.900;2022-08-01T14:27:53;101146.22;;;28.50;45.63
60852;BME280;48553;50.766;2.900;2022-08-01T14:30:54;101135.13;;;28.43;46.22
60852;BME280;48553;50.766;2.900;2022-08-01T14:33:55;101136.84;;;28.27;45.34
60852;BME280;48553;50.766;2.900;2022-08-01T14:36:56;101143.59;;;28.17;46.11
60852;BME280;48553;50.766;2.900;2022-08-01T14:39:57;101142.47;;;28.27;45.87
60852;BME280;48553;50.766;2.900;2022-08-01T14:42:58;101135.50;;;28.32;46.17
60852;BME280;48553;50.766;2.900;2022-08-01T14:45:59;101134.81;;;28.28;45.60
60852;BME280;48553;50.766;2.900;2022-08-01T14:49:00;101139.53;;;28.31;45.92
60852;BME280;48553;50.766;2.900;2022-08-01T14:52:00;101137.72;;;28.24;45.65
60852;BME280;48553;50.766;2.900;2022-08-01T14:55:01;101134.22;;;28.20;46.42
60852;BME280;48553;50.766;2.900;2022-08-01T14:58:01;101131.88;;;28.19;46.40
60852;BME280;48553;50.766;2.900;2022-08-01T15:01:02;101125.09;;;28.29;46.07
60852;BME280;48553;50.766;2.900;2022-08-01T15:04:04;101116.31;;;28.27;46.30
60852;BME280;48553;50.766;2.900;2022-08-01T15:07:05;101119.22;;;28.36;46.05
60852;BME280;48553;50.766;2.900;2022-08-01T15:10:06;101121.09;;;28.56;45.92
60852;BME280;48553;50.766;2.900;2022-08-01T15:13:06;101114.06;;;28.47;46.71
60852;BME280;48553;50.766;2.900;2022-08-01T15:16:07;101114.53;;;28.59;45.71
60852;BME280;48553;50.766;2.900;2022-08-01T15:19:08;101123.13;;;28.55;46.29
60852;BME280;48553;50.766;2.900;2022-08-01T15:22:09;101115.44;;;28.68;45.28
60852;BME280;48553;50.766;2.900;2022-08-01T15:25:10;101111.94;;;28.64;46.15
60852;BME280;48553;50.766;2.900;2022-08-01T15:28:11;101108.69;;;28.53;46.64
60852;BME280;48553;50.766;2.900;2022-08-01T15:31:11;101107.41;;;28.54;45.93
60852;BME280;48553;50.766;2.900;2022-08-01T15:34:12;101107.22;;;28.48;46.08
60852;BME280;48553;50.766;2.900;2022-08-01T15:37:13;101106.06;;;28.59;45.29
60852;BME280;48553;50.766;2.900;2022-08-01T15:40:14;101111.16;;;28.64;45.03
60852;BME280;48553;50.766;2.900;2022-08-01T15:43:15;101112.19;;;28.57;45.68
60852;BME280;48553;50.766;2.900;2022-08-01T15:46:15;101108.00;;;28.62;45.11
60852;BME280;48553;50.766;2.900;2022-08-01T15:49:16;101116.22;;;28.43;45.83
60852;BME280;48553;50.766;2.900;2022-08-01T15:52:17;101112.25;;;28.41;45.60
60852;BME280;48553;50.766;2.900;2022-08-01T15:55:18;101119.81;;;28.44;44.26
60852;BME280;48553;50.766;2.900;2022-08-01T15:58:19;101115.50;;;28.26;45.77
60852;BME280;48553;50.766;2.900;2022-08-01T16:01:19;101109.44;;;28.28;45.79
60852;BME280;48553;50.766;2.900;2022-08-01T16:04:21;101119.13;;;28.27;45.63
60852;BME280;48553;50.766;2.900;2022-08-01T16:07:21;101111.22;;;28.22;45.59
60852;BME280;48553;50.766;2.900;2022-08-01T16:10:22;101105.81;;;28.15;45.55